Time;durP1;ratioP1;P1;durP2;ratioP2;P2;SDS_P1;SDS_P2;PMS_P1;PMS_P2;Temp;Humidity;BMP_temperature;BMP_pressure;BME280_temperature;BME280_humidity;BME280_pressure;Samples;Min_cycle;Max_cycle;Signal;HPM_P1;HPM_P2
2021/09/26 00:00:44;;;;;;;4.07;3.67;;;;;;;16.54;82.34;100648.34;5022867;28;20241;-80
2021/09/26 00:03:10;;;;;;;4.07;3.70;;;;;;;16.54;82.64;100643.06;5026910;28;20266;-81
2021/09/26 00:05:37;;;;;;;3.73;3.50;;;;;;;16.52;82.58;100646.69;5035535;28;20266;-84
2021/09/26 00:08:03;;;;;;;4.77;4.37;;;;;;;16.47;83.29;100624.03;4671245;28;10000468;-79
2021/09/26 00:10:29;;;;;;;4.10;3.70;;;;;;;16.44;83.10;100623.28;5022407;28;20228;-81
2021/09/26 00:12:56;;;;;;;5.03;3.53;;;;;;;16.40;83.54;100619.06;5028145;28;20245;-81
2021/09/26 00:15:25;;;;;;;4.10;3.80;;;;;;;16.39;83.54;100612.94;5037807;28;20231;-80
2021/09/26 00:17:52;;;;;;;3.87;3.57;;;;;;;16.39;83.68;100610.31;5028258;28;20241;-80
2021/09/26 00:20:20;;;;;;;3.80;3.50;;;;;;;16.34;83.01;100622.78;5029878;28;20199;-80
2021/09/26 00:22:47;;;;;;;3.77;3.23;;;;;;;16.31;83.11;100624.69;5037906;28;20230;-81
2021/09/26 00:25:14;;;;;;;4.10;3.80;;;;;;;16.24;82.99;100629.34;5030127;28;20254;-80
2021/09/26 00:27:41;;;;;;;4.47;3.77;;;;;;;16.20;83.32;100625.13;5034690;28;20206;-80
2021/09/26 00:30:10;;;;;;;3.27;3.07;;;;;;;16.15;83.44;100620.00;5038702;28;20571;-79
2021/09/26 00:32:39;;;;;;;3.70;3.50;;;;;;;16.13;83.91;100602.56;5039420;28;20576;-79
2021/09/26 00:35:06;;;;;;;4.00;3.70;;;;;;;16.15;83.97;100598.09;5038119;28;20721;-80
2021/09/26 00:37:32;;;;;;;7.20;3.50;;;;;;;16.17;84.77;100586.56;5038792;28;20229;-79
2021/09/26 00:39:59;;;;;;;3.40;3.17;;;;;;;16.14;84.01;100602.50;5038101;28;20210;-78
2021/09/26 00:42:25;;;;;;;3.70;3.43;;;;;;;16.09;83.58;100617.63;5029355;28;20264;-79
2021/09/26 00:44:52;;;;;;;3.53;3.23;;;;;;;16.06;83.04;100620.38;5029903;28;20660;-78
2021/09/26 00:47:18;;;;;;;3.13;2.93;;;;;;;16.00;82.99;100631.16;5038417;28;20199;-78
2021/09/26 00:49:47;;;;;;;4.53;3.50;;;;;;;15.93;83.06;100632.31;5031909;28;20209;-80
2021/09/26 00:52:14;;;;;;;3.87;3.57;;;;;;;15.91;83.23;100627.09;5022113;28;20711;-78
2021/09/26 00:54:41;;;;;;;4.23;3.83;;;;;;;15.87;83.15;100634.25;5038274;28;20233;-79
2021/09/26 00:57:08;;;;;;;3.37;3.17;;;;;;;15.88;83.92;100630.69;5037609;28;20226;-79
2021/09/26 00:59:34;;;;;;;3.93;3.40;;;;;;;15.84;84.70;100586.13;5038284;28;20210;-78
2021/09/26 01:02:00;;;;;;;3.73;3.40;;;;;;;15.83;85.23;100566.84;5037862;28;20252;-80
2021/09/26 01:04:27;;;;;;;3.63;3.33;;;;;;;15.86;84.89;100572.00;5037883;28;20242;-80
2021/09/26 01:07:01;;;;;;;3.80;3.27;;;;;;;15.88;84.33;100595.63;5037180;28;20258;-78
2021/09/26 01:09:35;;;;;;;3.60;3.40;;;;;;;15.88;84.59;100593.84;5032999;28;20207;-80
2021/09/26 01:12:09;;;;;;;3.80;3.50;;;;;;;15.89;84.13;100600.81;5029110;28;20199;-81
2021/09/26 01:14:44;;;;;;;3.23;3.00;;;;;;;15.92;84.30;100594.59;5037723;28;20209;-81
2021/09/26 01:17:20;;;;;;;4.83;3.13;;;;;;;15.92;84.66;100594.59;5037333;28;20214;-81
2021/09/26 01:20:22;;;;;;;3.83;2.90;;;;;;;15.92;85.00;100573.53;5030681;28;20266;-81
2021/09/26 01:23:16;;;;;;;3.07;2.87;;;;;;;15.88;84.07;100596.47;5028815;28;20221;-80
2021/09/26 01:25:57;;;;;;;3.50;3.20;;;;;;;15.84;83.79;100612.47;5037293;28;20230;-81
2021/09/26 01:28:51;;;;;;;3.03;2.83;;;;;;;15.87;84.40;100601.78;5037306;28;20230;-80
2021/09/26 01:31:22;;;;;;;4.27;3.17;;;;;;;15.79;84.36;100590.72;5032748;28;20204;-80
2021/09/26 01:33:53;;;;;;;3.20;2.90;;;;;;;15.78;84.57;100589.00;5026079;28;20250;-78
2021/09/26 01:36:24;;;;;;;3.10;2.90;;;;;;;15.78;84.49;100589.84;5037410;28;20254;-79
2021/09/26 01:38:55;;;;;;;3.00;2.80;;;;;;;15.78;84.13;100604.81;5036183;28;20739;-80
2021/09/26 01:41:29;;;;;;;2.80;2.60;;;;;;;15.73;83.62;100622.53;5037158;28;20245;-81
2021/09/26 01:43:58;;;;;;;2.90;2.70;;;;;;;15.65;83.01;100639.41;5036872;28;20281;-79
2021/09/26 01:46:30;;;;;;;2.97;2.70;;;;;;;15.64;82.58;100657.91;5036809;28;20230;-81
2021/09/26 01:49:02;;;;;;;3.53;2.83;;;;;;;15.57;82.97;100644.09;5036499;28;20221;-81
2021/09/26 01:51:33;;;;;;;3.07;2.87;;;;;;;15.46;83.55;100623.47;5036969;28;20581;-81
2021/09/26 01:54:01;;;;;;;2.67;2.47;;;;;;;15.48;83.44;100626.03;5036287;28;20260;-79
2021/09/26 01:56:29;;;;;;;2.80;2.33;;;;;;;15.44;84.35;100590.22;5036623;28;20272;-80
2021/09/26 01:58:56;;;;;;;3.00;2.80;;;;;;;15.40;84.01;100610.53;5036571;28;20238;-81
2021/09/26 02:01:22;;;;;;;3.50;3.20;;;;;;;15.28;84.03;100610.94;5032013;28;20212;-80
2021/09/26 02:03:52;;;;;;;2.50;2.40;;;;;;;15.30;83.61;100624.91;5025377;28;20204;-80
2021/09/26 02:06:19;;;;;;;3.23;3.00;;;;;;;15.32;83.29;100635.38;5036157;28;20230;-80
2021/09/26 02:08:45;;;;;;;2.73;2.53;;;;;;;15.23;83.10;100637.41;5035357;28;20230;-79
2021/09/26 02:11:14;;;;;;;2.93;2.73;;;;;;;15.24;83.43;100627.75;5036486;28;20245;-81
2021/09/26 02:13:43;;;;;;;3.50;3.20;;;;;;;15.23;84.40;100597.97;5035764;28;20595;-80
2021/09/26 02:16:10;;;;;;;3.20;2.90;;;;;;;14.99;86.35;100541.00;5033236;28;20233;-81
2021/09/26 02:18:38;;;;;;;3.20;2.97;;;;;;;15.05;86.74;100514.50;5024174;28;20237;-81
2021/09/26 02:21:08;;;;;;;3.03;2.80;;;;;;;15.14;87.15;100497.53;5034978;28;20198;-81
2021/09/26 02:23:35;;;;;;;3.23;3.03;;;;;;;15.15;86.52;100515.88;5035669;28;20210;-81
2021/09/26 02:26:04;;;;;;;3.17;2.97;;;;;;;15.17;85.37;100540.34;5035944;28;20679;-81
2021/09/26 02:28:31;;;;;;;3.37;3.17;;;;;;;15.14;85.94;100550.09;5035507;28;20638;-81
2021/09/26 02:30:57;;;;;;;2.73;2.53;;;;;;;15.14;84.48;100589.53;5035982;28;20213;-81
2021/09/26 02:33:24;;;;;;;3.07;2.87;;;;;;;15.01;84.20;100602.28;5035701;28;20240;-81
2021/09/26 02:35:50;;;;;;;3.10;2.90;;;;;;;14.96;84.66;100588.44;5035971;28;20226;-81
2021/09/26 02:38:18;;;;;;;3.43;3.23;;;;;;;14.84;84.55;100582.66;5035345;28;20317;-81
2021/09/26 02:40:52;;;;;;;3.23;2.93;;;;;;;14.81;84.48;100584.56;5035699;28;20229;-81
2021/09/26 02:43:24;;;;;;;3.67;3.37;;;;;;;14.81;84.57;100585.41;5035718;28;20248;-81
2021/09/26 02:45:56;;;;;;;3.53;3.33;;;;;;;14.80;84.46;100574.94;5035321;28;20379;-80
2021/09/26 02:48:27;;;;;;;2.97;2.77;;;;;;;14.74;84.73;100575.16;5017156;28;20603;-81
2021/09/26 02:50:55;;;;;;;3.23;3.03;;;;;;;14.63;84.88;100571.13;5032993;28;20583;-80
2021/09/26 02:53:24;;;;;;;3.10;2.90;;;;;;;14.62;84.67;100586.94;5033485;28;20603;-81
2021/09/26 02:55:52;;;;;;;3.40;3.00;;;;;;;14.57;84.71;100579.22;5023846;28;20223;-80
2021/09/26 02:58:18;;;;;;;3.80;3.50;;;;;;;14.48;84.40;100575.09;5034766;28;20253;-81
2021/09/26 03:00:47;;;;;;;3.97;3.67;;;;;;;14.45;84.34;100580.47;5023296;28;20234;-80
2021/09/26 03:03:16;;;;;;;3.80;3.50;;;;;;;14.41;84.34;100576.22;4995909;28;20700;-81
2021/09/26 03:05:44;;;;;;;3.80;3.57;;;;;;;14.36;84.20;100575.50;4996201;28;20286;-81
2021/09/26 03:08:11;;;;;;;4.10;3.70;;;;;;;14.37;83.94;100592.09;4995429;28;20215;-81
2021/09/26 03:10:41;;;;;;;4.27;3.97;;;;;;;14.22;84.04;100577.72;4994360;28;20207;-81
2021/09/26 03:13:08;;;;;;;5.07;3.67;;;;;;;14.23;83.97;100575.03;4995866;28;20211;-81
2021/09/26 03:15:34;;;;;;;3.80;3.60;;;;;;;14.16;84.01;100585.78;4995532;28;20227;-81
2021/09/26 03:18:01;;;;;;;4.67;3.50;;;;;;;14.08;84.08;100575.53;4995551;28;20247;-81
2021/09/26 03:20:28;;;;;;;3.80;3.50;;;;;;;14.08;84.18;100568.50;4995124;28;20203;-81
2021/09/26 03:22:55;;;;;;;3.97;3.67;;;;;;;14.10;84.99;100547.44;4995416;28;20204;-81
2021/09/26 03:25:22;;;;;;;4.10;3.80;;;;;;;14.16;84.98;100538.53;5018791;28;20271;-81
2021/09/26 03:27:50;;;;;;;3.47;3.27;;;;;;;14.12;84.83;100535.13;5030943;28;20662;-81
2021/09/26 03:30:17;;;;;;;3.50;3.30;;;;;;;14.09;84.26;100550.97;5033944;28;20209;-80
2021/09/26 03:32:44;;;;;;;3.43;3.20;;;;;;;14.02;84.75;100539.81;5034442;28;20641;-81
2021/09/26 03:35:11;;;;;;;3.70;3.50;;;;;;;14.10;83.89;100558.81;5035196;28;20229;-79
2021/09/26 03:37:38;;;;;;;3.63;3.33;;;;;;;14.00;83.93;100569.66;5031229;28;20244;-80
2021/09/26 03:40:06;;;;;;;4.13;3.77;;;;;;;13.98;83.91;100558.34;5024773;28;20627;-81
2021/09/26 03:42:33;;;;;;;3.80;3.50;;;;;;;13.92;84.33;100555.91;5034412;28;20628;-81
2021/09/26 03:45:01;;;;;;;3.93;3.63;;;;;;;13.86;84.34;100554.34;5034147;28;20620;-81
2021/09/26 03:47:27;;;;;;;3.70;3.40;;;;;;;13.84;84.69;100532.53;5034610;28;20256;-81
2021/09/26 03:49:54;;;;;;;4.10;3.60;;;;;;;13.87;85.10;100540.28;5024971;28;20238;-81
2021/09/26 03:52:20;;;;;;;3.67;3.40;;;;;;;13.88;85.68;100519.25;5027058;28;20259;-80
2021/09/26 03:54:50;;;;;;;3.90;3.50;;;;;;;13.83;84.87;100520.31;5033923;28;20218;-81
2021/09/26 03:57:16;;;;;;;3.63;3.43;;;;;;;13.83;85.32;100505.41;5034006;28;20213;-81
2021/09/26 03:59:43;;;;;;;3.60;3.30;;;;;;;13.90;86.48;100475.47;5033562;28;20246;-81
2021/09/26 04:02:10;;;;;;;4.10;3.80;;;;;;;13.66;89.64;100387.91;5033429;28;20293;-80
2021/09/26 04:04:37;;;;;;;3.97;3.77;;;;;;;13.74;89.87;100369.31;5033816;28;20240;-79
2021/09/26 04:07:04;;;;;;;4.10;2.80;;;;;;;13.80;88.78;100395.34;5033936;28;20234;-80
2021/09/26 04:09:30;;;;;;;3.90;3.70;;;;;;;13.88;88.01;100434.44;5032964;28;20235;-79
2021/09/26 04:11:56;;;;;;;3.50;3.20;;;;;;;13.89;87.40;100452.75;5033444;28;20276;-81
2021/09/26 04:14:23;;;;;;;3.57;3.27;;;;;;;13.85;86.60;100477.34;5033581;28;20213;-81
2021/09/26 04:16:52;;;;;;;3.40;3.20;;;;;;;13.84;86.66;100474.81;5033006;28;20261;-80
2021/09/26 04:19:20;;;;;;;3.60;3.40;;;;;;;13.81;86.60;100477.50;5026173;28;20197;-80
2021/09/26 04:21:46;;;;;;;3.17;2.97;;;;;;;13.80;86.73;100471.41;5025149;28;20208;-80
2021/09/26 04:24:14;;;;;;;3.07;2.87;;;;;;;13.84;86.53;100469.56;5035780;28;20709;-81
2021/09/26 04:26:40;;;;;;;3.33;3.10;;;;;;;13.83;86.85;100466.06;5036637;28;20265;-80
2021/09/26 04:29:06;;;;;;;3.43;3.23;;;;;;;13.87;87.29;100438.84;5032037;28;20220;-80
2021/09/26 04:31:33;;;;;;;4.47;3.80;;;;;;;13.95;88.33;100411.47;5028507;28;20226;-81
2021/09/26 04:33:59;;;;;;;3.50;3.27;;;;;;;14.00;89.58;100368.41;5036382;28;20239;-79
2021/09/26 04:36:27;;;;;;;3.07;2.87;;;;;;;14.04;89.44;100371.81;5036618;28;20799;-80
2021/09/26 04:38:53;;;;;;;3.53;3.23;;;;;;;14.04;89.92;100363.94;5036146;28;20241;-79
2021/09/26 04:41:20;;;;;;;3.23;2.93;;;;;;;14.09;90.10;100359.34;5036637;28;20259;-80
2021/09/26 04:43:46;;;;;;;3.47;3.27;;;;;;;14.10;89.62;100363.72;5037644;28;20247;-80
2021/09/26 04:46:13;;;;;;;3.43;3.13;;;;;;;14.13;89.43;100378.50;5037879;28;20273;-81
2021/09/26 04:48:39;;;;;;;3.67;3.43;;;;;;;14.12;88.87;100398.63;5037554;28;20746;-80
2021/09/26 04:51:05;;;;;;;3.13;2.83;;;;;;;14.08;89.33;100405.75;5037833;28;20573;-80
2021/09/26 04:53:33;;;;;;;3.23;3.03;;;;;;;14.06;89.23;100391.81;5037786;28;20738;-81
2021/09/26 04:55:59;;;;;;;3.57;3.37;;;;;;;14.13;89.33;100394.25;5037546;28;20258;-80
2021/09/26 04:58:28;;;;;;;3.17;2.97;;;;;;;14.14;89.65;100391.56;5036903;28;20206;-80
2021/09/26 05:00:54;;;;;;;3.17;2.97;;;;;;;14.22;90.48;100359.81;5027376;28;20202;-80
2021/09/26 05:03:20;;;;;;;3.40;3.10;;;;;;;14.18;89.44;100379.19;5037847;28;20237;-80
2021/09/26 05:05:47;;;;;;;3.90;3.60;;;;;;;14.21;88.83;100406.22;5034014;28;20264;-80
2021/09/26 05:08:13;;;;;;;3.27;3.07;;;;;;;14.22;89.16;100394.78;5028998;28;20259;-80
2021/09/26 05:10:41;;;;;;;3.17;2.97;;;;;;;14.26;89.75;100391.13;5037529;28;20231;-80
2021/09/26 05:13:07;;;;;;;3.73;3.43;;;;;;;14.28;89.72;100394.56;5037736;28;20244;-80
2021/09/26 05:15:33;;;;;;;3.63;3.43;;;;;;;14.28;89.73;100381.44;5037217;28;20247;-80
2021/09/26 05:18:00;;;;;;;3.50;3.20;;;;;;;14.25;89.44;100389.44;5037462;28;20214;-80
2021/09/26 05:20:26;;;;;;;3.90;3.60;;;;;;;14.19;89.27;100394.91;5036619;28;20232;-80
2021/09/26 05:22:53;;;;;;;3.00;2.80;;;;;;;14.24;89.45;100398.22;5028888;28;20249;-80
2021/09/26 05:25:22;;;;;;;2.93;2.73;;;;;;;14.29;90.36;100377.03;5029145;28;20221;-80
2021/09/26 05:27:50;;;;;;;6.63;6.13;;;;;;;14.03;90.36;100372.69;5037532;28;20232;-80
2021/09/26 05:30:16;;;;;;;7.63;7.03;;;;;;;14.08;90.41;100363.75;5037203;28;20237;-80
2021/09/26 05:32:43;;;;;;;6.23;5.83;;;;;;;14.13;90.35;100371.47;5037190;28;20331;-78
2021/09/26 05:35:10;;;;;;;6.40;5.90;;;;;;;14.16;90.17;100376.63;5036525;28;20236;-80
2021/09/26 05:37:36;;;;;;;5.93;4.47;;;;;;;14.21;89.62;100395.72;5036869;28;20236;-80
2021/09/26 05:40:03;;;;;;;3.60;3.30;;;;;;;14.25;89.79;100397.31;5036677;28;20217;-80
2021/09/26 05:42:29;;;;;;;4.00;3.70;;;;;;;14.29;89.55;100392.78;5036722;28;20258;-80
2021/09/26 05:44:57;;;;;;;2.90;2.70;;;;;;;14.24;90.23;100382.47;5036519;28;20207;-80
2021/09/26 05:47:24;;;;;;;3.33;3.00;;;;;;;14.27;90.17;100366.59;5036531;28;20265;-80
2021/09/26 05:49:50;;;;;;;3.10;2.70;;;;;;;14.31;89.92;100385.75;5036414;28;20213;-80
2021/09/26 05:52:16;;;;;;;3.53;3.23;;;;;;;14.35;90.94;100368.09;5033329;28;20217;-80
2021/09/26 05:54:43;;;;;;;3.63;3.43;;;;;;;14.38;90.64;100354.84;5025084;28;20249;-80
2021/09/26 05:57:10;;;;;;;5.57;5.13;;;;;;;14.42;90.21;100364.34;5036077;28;20252;-80
2021/09/26 05:59:38;;;;;;;7.87;4.60;;;;;;;14.49;90.49;100378.97;5035767;28;20208;-81
2021/09/26 06:02:07;;;;;;;5.50;5.10;;;;;;;14.46;89.86;100386.94;5035836;28;20202;-81
2021/09/26 06:04:33;;;;;;;4.43;4.13;;;;;;;14.54;89.52;100403.28;5036362;28;20205;-80
2021/09/26 06:07:00;;;;;;;3.13;2.90;;;;;;;14.58;89.24;100401.44;5036086;28;20736;-80
2021/09/26 06:09:26;;;;;;;3.10;2.90;;;;;;;14.58;89.43;100390.94;5036713;28;20219;-80
2021/09/26 06:11:53;;;;;;;3.10;2.90;;;;;;;14.56;89.67;100382.22;5036088;28;20553;-80
2021/09/26 06:14:19;;;;;;;3.30;3.10;;;;;;;14.59;90.44;100366.38;5036952;28;20209;-80
2021/09/26 06:16:45;;;;;;;3.50;3.20;;;;;;;14.63;90.34;100365.38;5035762;28;20268;-80
2021/09/26 06:19:13;;;;;;;3.50;3.20;;;;;;;14.71;91.52;100323.91;5035578;28;20295;-80
2021/09/26 06:21:42;;;;;;;3.93;3.23;;;;;;;14.77;92.21;100307.91;5034993;28;20210;-80
2021/09/26 06:24:09;;;;;;;3.60;3.30;;;;;;;14.80;91.89;100315.66;5024697;28;20214;-80
2021/09/26 06:26:35;;;;;;;2.97;2.77;;;;;;;14.93;92.71;100316.03;5031016;28;20256;-79
2021/09/26 06:29:02;;;;;;;3.30;2.87;;;;;;;14.97;91.80;100322.88;5035620;28;20233;-80
2021/09/26 06:31:28;;;;;;;3.53;3.20;;;;;;;15.05;92.16;100320.81;5035927;28;20206;-80
2021/09/26 06:33:54;;;;;;;3.60;3.30;;;;;;;15.12;91.16;100354.75;5035610;28;20205;-80
2021/09/26 06:36:22;;;;;;;3.87;3.23;;;;;;;15.20;90.89;100363.19;5035558;28;20264;-79
2021/09/26 06:38:48;;;;;;;2.93;2.80;;;;;;;15.22;91.90;100332.44;5035159;28;20209;-79
2021/09/26 06:41:15;;;;;;;3.00;2.80;;;;;;;15.29;92.00;100333.91;5035363;28;20738;-81
2021/09/26 06:43:42;;;;;;;5.43;3.17;;;;;;;15.35;91.84;100338.06;5035424;28;20234;-80
2021/09/26 06:46:08;;;;;;;3.10;2.90;;;;;;;15.36;91.79;100351.16;5034842;28;20232;-80
2021/09/26 06:48:34;;;;;;;3.07;2.87;;;;;;;15.40;91.73;100346.59;5035957;28;20272;-80
2021/09/26 06:51:01;;;;;;;3.00;2.77;;;;;;;15.47;91.58;100363.88;5034759;28;20252;-80
2021/09/26 06:53:28;;;;;;;3.77;3.47;;;;;;;15.53;89.96;100418.03;5026388;28;20229;-80
2021/09/26 06:55:55;;;;;;;3.43;3.17;;;;;;;15.55;89.60;100434.59;5025432;28;20222;-79
2021/09/26 06:58:21;;;;;;;3.90;3.60;;;;;;;15.60;89.49;100446.66;5033338;28;20242;-79
2021/09/26 07:00:48;;;;;;;4.10;3.80;;;;;;;15.64;88.96;100463.19;5033621;28;20213;-79
2021/09/26 07:03:16;;;;;;;3.40;3.20;;;;;;;15.73;88.84;100472.50;5033613;28;20240;-79
2021/09/26 07:05:42;;;;;;;3.30;3.10;;;;;;;15.77;88.14;100488.09;5034542;28;20230;-80
2021/09/26 07:08:09;;;;;;;3.80;3.23;;;;;;;15.87;88.72;100478.06;5033846;28;20671;-79
2021/09/26 07:10:36;;;;;;;3.43;3.23;;;;;;;15.92;88.40;100473.50;5034476;28;20202;-79
2021/09/26 07:13:03;;;;;;;3.33;3.13;;;;;;;15.99;88.30;100487.25;5033989;28;20564;-80
2021/09/26 07:15:29;;;;;;;4.73;3.40;;;;;;;16.03;87.34;100507.28;5034558;28;20235;-79
2021/09/26 07:17:57;;;;;;;3.33;3.03;;;;;;;16.05;88.80;100481.72;5034638;28;20206;-79
2021/09/26 07:20:23;;;;;;;3.47;3.27;;;;;;;16.09;89.04;100475.41;5032597;28;20575;-78
2021/09/26 07:22:50;;;;;;;3.40;3.10;;;;;;;16.20;88.03;100496.06;5025899;28;20214;-78
2021/09/26 07:25:16;;;;;;;3.40;3.07;;;;;;;16.21;87.53;100522.34;5025842;28;20236;-79
2021/09/26 07:27:44;;;;;;;3.87;3.57;;;;;;;16.27;86.75;100545.78;5033924;28;20301;-78
2021/09/26 07:30:11;;;;;;;3.73;3.43;;;;;;;16.33;87.07;100549.06;5033781;28;20241;-79
2021/09/26 07:32:38;;;;;;;3.20;2.73;;;;;;;16.30;88.22;100517.63;5034302;28;20209;-80
2021/09/26 07:35:05;;;;;;;2.97;2.77;;;;;;;16.32;88.74;100495.53;5035627;28;20663;-79
2021/09/26 07:37:31;;;;;;;3.03;2.83;;;;;;;16.43;89.39;100472.25;5035390;28;20549;-80
2021/09/26 07:39:58;;;;;;;2.60;2.40;;;;;;;16.31;88.64;100492.97;5035175;28;20210;-80
2021/09/26 07:42:24;;;;;;;2.97;2.77;;;;;;;16.33;89.17;100481.44;5034907;28;20206;-80
2021/09/26 07:44:52;;;;;;;2.63;2.43;;;;;;;16.30;89.77;100462.28;5035505;28;20206;-81
2021/09/26 07:47:18;;;;;;;3.07;2.63;;;;;;;16.27;90.18;100447.44;5036811;28;20241;-79
2021/09/26 07:49:45;;;;;;;3.57;3.30;;;;;;;16.30;90.64;100443.84;5035376;28;20232;-81
2021/09/26 07:52:11;;;;;;;3.17;2.97;;;;;;;16.31;91.23;100430.59;5032433;28;20241;-79
2021/09/26 07:54:38;;;;;;;5.60;3.00;;;;;;;16.35;91.11;100426.94;5021979;28;20218;-80
2021/09/26 07:57:04;;;;;;;2.80;2.60;;;;;;;16.43;91.58;100408.13;5033149;28;20316;-79
2021/09/26 07:59:31;;;;;;;3.20;2.80;;;;;;;16.54;91.30;100416.44;5036467;28;20524;-79
2021/09/26 08:01:58;;;;;;;3.07;2.87;;;;;;;16.56;91.25;100421.66;5037619;28;20210;-81
2021/09/26 08:04:25;;;;;;;3.30;3.00;;;;;;;16.73;91.49;100413.84;5037774;28;20240;-81
2021/09/26 08:06:51;;;;;;;3.10;2.80;;;;;;;16.80;91.79;100411.78;5037668;28;20253;-78
2021/09/26 08:09:17;;;;;;;3.97;3.53;;;;;;;16.95;90.45;100455.09;5036775;28;20629;-81
2021/09/26 08:11:44;;;;;;;3.37;2.93;;;;;;;17.01;90.76;100447.75;5037586;28;20241;-81
2021/09/26 08:14:10;;;;;;;3.20;3.00;;;;;;;17.11;90.72;100457.91;5037045;28;20237;-81
2021/09/26 08:16:36;;;;;;;3.13;2.93;;;;;;;17.22;90.23;100456.47;5037036;28;20309;-78
2021/09/26 08:19:04;;;;;;;3.20;3.00;;;;;;;17.27;89.40;100483.47;5037173;28;20230;-78
2021/09/26 08:21:31;;;;;;;3.47;3.27;;;;;;;17.33;87.64;100548.31;5036298;28;20235;-80
2021/09/26 08:23:57;;;;;;;3.80;3.07;;;;;;;17.48;87.40;100562.56;5027724;28;20674;-81
2021/09/26 08:26:23;;;;;;;3.67;3.10;;;;;;;17.43;88.97;100504.75;5030526;28;20223;-81
2021/09/26 08:28:50;;;;;;;3.77;3.40;;;;;;;17.47;89.38;100484.34;5036535;28;20246;-80
2021/09/26 08:31:16;;;;;;;2.83;2.63;;;;;;;17.45;89.73;100467.72;5037075;28;20215;-80
2021/09/26 08:33:43;;;;;;;3.50;3.30;;;;;;;17.38;90.47;100453.09;5037518;28;20208;-81
2021/09/26 08:36:11;;;;;;;3.23;3.03;;;;;;;17.33;89.84;100455.97;5037391;28;20232;-79
2021/09/26 08:38:37;;;;;;;3.30;3.10;;;;;;;17.29;90.09;100464.09;5037370;28;20227;-81
2021/09/26 08:41:03;;;;;;;3.70;3.50;;;;;;;17.16;91.16;100434.78;5037636;28;20203;-81
2021/09/26 08:43:30;;;;;;;3.57;3.33;;;;;;;17.18;91.45;100425.00;5019154;28;20206;-79
2021/09/26 08:45:57;;;;;;;3.40;3.10;;;;;;;17.19;91.74;100419.66;5007214;28;20250;-82
2021/09/26 08:48:23;;;;;;;4.10;3.80;;;;;;;17.23;91.26;100436.22;5007524;28;20725;-83
2021/09/26 08:50:50;;;;;;;4.10;3.80;;;;;;;17.34;89.23;100501.66;5007250;28;20208;-79
2021/09/26 08:53:21;;;;;;;4.60;4.20;;;;;;;17.37;88.85;100512.94;5014876;28;20206;-81
2021/09/26 08:55:48;;;;;;;4.47;4.17;;;;;;;17.53;86.61;100591.41;5013262;28;20221;-80
2021/09/26 08:58:17;;;;;;;4.50;4.20;;;;;;;17.67;86.85;100603.03;5006684;28;20203;-80
2021/09/26 09:00:43;;;;;;;4.13;3.83;;;;;;;17.83;84.48;100676.28;5007519;28;20227;-80
2021/09/26 09:03:11;;;;;;;3.80;3.27;;;;;;;17.97;83.80;100704.75;5006148;28;20238;-80
2021/09/26 09:05:39;;;;;;;3.90;3.60;;;;;;;18.15;84.91;100653.69;5009556;28;20219;-81
2021/09/26 09:08:09;;;;;;;4.07;3.67;;;;;;;18.21;84.28;100650.75;5008894;28;20239;-82
2021/09/26 09:10:46;;;;;;;3.90;3.60;;;;;;;18.49;83.05;100685.59;5006671;28;20254;-81
2021/09/26 09:13:15;;;;;;;4.50;4.10;;;;;;;18.68;79.89;100817.78;5006293;28;20625;-81
2021/09/26 09:15:50;;;;;;;31.67;8.50;;;;;;;18.77;80.51;100836.72;5010684;28;20625;-83
2021/09/26 09:18:17;;;;;;;11.43;5.33;;;;;;;18.82;81.26;100765.13;5015694;28;20639;-80
2021/09/26 09:20:43;;;;;;;5.33;4.93;;;;;;;18.89;75.10;100978.19;5008305;28;20208;-84
2021/09/26 09:23:13;;;;;;;4.70;4.30;;;;;;;18.88;77.01;100910.31;5015456;28;20245;-80
2021/09/26 09:25:43;;;;;;;4.63;4.23;;;;;;;18.91;76.03;100915.47;5016220;28;20777;-79
2021/09/26 09:28:12;;;;;;;4.90;4.50;;;;;;;18.96;76.72;100920.56;5015802;28;20234;-77
2021/09/26 09:30:41;;;;;;;4.20;4.00;;;;;;;18.88;81.78;100717.22;5015865;28;20229;-79
2021/09/26 09:33:09;;;;;;;4.83;4.40;;;;;;;18.84;80.34;100728.88;5015893;28;20203;-79
2021/09/26 09:35:41;;;;;;;4.63;4.23;;;;;;;18.70;82.05;100689.00;5015861;28;20789;-80
2021/09/26 09:38:08;;;;;;;4.53;4.23;;;;;;;18.88;76.08;100897.09;5015559;28;20205;-77
2021/09/26 09:40:35;;;;;;;4.77;4.47;;;;;;;18.96;77.68;100860.56;5015580;28;20251;-80
2021/09/26 09:43:03;;;;;;;4.60;4.30;;;;;;;18.95;82.10;100686.00;5015074;28;20269;-80
2021/09/26 09:45:33;;;;;;;4.27;3.97;;;;;;;19.01;78.26;100787.13;5015637;28;20267;-79
2021/09/26 09:48:06;;;;;;;4.47;4.07;;;;;;;19.12;77.60;100817.50;5023194;28;20274;-79
2021/09/26 09:50:55;;;;;;;5.23;4.73;;;;;;;19.21;75.23;100907.88;5030062;28;20322;-80
2021/09/26 09:53:32;;;;;;;4.70;4.33;;;;;;;19.31;76.15;100918.06;5034918;28;20208;-80
2021/09/26 09:56:18;;;;;;;4.20;3.90;;;;;;;19.34;77.43;100841.97;5035095;28;20229;-79
2021/09/26 09:58:47;;;;;;;4.90;4.53;;;;;;;19.39;79.22;100832.03;5034973;28;20258;-79
2021/09/26 10:01:16;;;;;;;5.00;4.60;;;;;;;19.44;77.47;100879.44;5034834;28;20204;-79
2021/09/26 10:03:48;;;;;;;5.10;4.63;;;;;;;19.45;78.53;100860.00;5035184;28;20246;-80
2021/09/26 10:06:24;;;;;;;4.80;4.40;;;;;;;19.59;76.13;100931.66;5034779;28;20231;-79
2021/09/26 10:08:51;;;;;;;4.73;4.33;;;;;;;19.62;75.08;100928.88;5033796;28;20227;-80
2021/09/26 10:11:18;;;;;;;4.97;4.00;;;;;;;19.67;77.45;100853.63;5034930;28;20650;-80
2021/09/26 10:13:47;;;;;;;4.90;4.57;;;;;;;19.63;78.90;100795.50;5034774;28;20232;-79
2021/09/26 10:16:14;;;;;;;4.67;4.37;;;;;;;19.68;77.73;100824.38;5032502;28;20625;-80
2021/09/26 10:18:42;;;;;;;5.03;4.67;;;;;;;19.77;77.49;100850.44;5022349;28;20255;-79
2021/09/26 10:21:10;;;;;;;4.80;4.40;;;;;;;19.75;79.78;100748.16;5033964;28;20476;-79
2021/09/26 10:23:36;;;;;;;4.47;4.17;;;;;;;19.79;78.96;100798.25;5034426;28;20212;-80
2021/09/26 10:26:03;;;;;;;4.70;4.20;;;;;;;19.95;73.60;100945.84;5034490;28;20233;-79
2021/09/26 10:28:33;;;;;;;4.70;4.43;;;;;;;20.12;73.54;100984.75;5034418;28;20256;-80
2021/09/26 10:31:05;;;;;;;4.83;4.43;;;;;;;20.23;71.93;101044.25;5034708;28;20209;-80
2021/09/26 10:33:32;;;;;;;5.30;4.80;;;;;;;20.30;75.78;100949.38;5035356;28;20722;-81
2021/09/26 10:36:01;;;;;;;5.07;4.77;;;;;;;20.21;74.88;100876.44;5008813;28;20223;-82
2021/09/26 10:38:28;;;;;;;5.13;4.73;;;;;;;20.35;73.45;100996.84;4311730;28;10000709;-80
2021/09/26 10:40:55;;;;;;;4.63;4.30;;;;;;;20.40;74.49;100913.47;5002533;28;20199;-80
2021/09/26 10:43:26;;;;;;;5.80;4.73;;;;;;;20.43;73.36;100979.63;5002339;28;20567;-83
2021/09/26 10:46:13;;;;;;;5.00;4.60;;;;;;;20.50;72.71;100932.41;5003849;28;20709;-81
2021/09/26 10:49:11;;;;;;;5.90;5.37;;;;;;;20.68;72.69;101006.69;5008808;28;20248;-81
2021/09/26 10:51:46;;;;;;;4.77;4.47;;;;;;;20.85;71.10;101048.25;4972295;28;20206;-80
2021/09/26 10:54:36;;;;;;;4.40;4.03;;;;;;;21.05;70.50;101063.13;4995708;28;20201;-80
2021/09/26 10:57:36;;;;;;;5.80;4.43;;;;;;;21.28;67.57;101174.31;5002532;28;20723;-81
2021/09/26 11:00:05;;;;;;;5.00;4.50;;;;;;;21.45;67.98;101175.25;5003867;28;20232;-81
2021/09/26 11:02:45;;;;;;;4.40;4.00;;;;;;;21.57;67.68;101178.13;5003321;28;20210;-79
2021/09/26 11:05:42;;;;;;;4.60;4.37;;;;;;;21.76;68.39;101166.50;5002885;28;20226;-80
2021/09/26 11:08:12;;;;;;;4.27;3.87;;;;;;;21.88;66.77;101135.72;4943633;29;20235;-79
2021/09/26 11:10:43;;;;;;;9.73;4.27;;;;;;;21.94;68.04;101138.94;4990305;28;20233;-80
2021/09/26 11:13:19;;;;;;;4.60;4.23;;;;;;;22.04;66.05;101192.44;5006986;28;20628;-80
2021/09/26 11:16:14;;;;;;;4.60;4.20;;;;;;;22.08;65.35;101246.28;5006686;28;20820;-80
2021/09/26 11:18:54;;;;;;;4.70;4.37;;;;;;;22.14;65.43;101230.88;4983759;28;20202;-80
2021/09/26 11:21:46;;;;;;;4.40;4.10;;;;;;;22.23;65.04;101234.81;5003320;28;20216;-80
2021/09/26 11:24:23;;;;;;;4.17;3.87;;;;;;;22.82;64.84;101223.59;5001884;28;20217;-82
2021/09/26 11:27:03;;;;;;;4.60;4.20;;;;;;;23.46;61.28;101337.06;5003847;28;20222;-80
2021/09/26 11:29:31;;;;;;;4.63;4.27;;;;;;;24.47;58.17;101481.34;5001761;28;20226;-82
2021/09/26 11:31:59;;;;;;;4.90;4.27;;;;;;;25.07;56.04;101565.84;5003741;28;20260;-81